createdAt,value
2019-04-30T00:00:45.962Z,9.58
2019-04-30T00:05:53.799Z,9.62
2019-04-30T00:10:58.826Z,9.64
2019-04-30T00:16:05.365Z,9.61
2019-04-30T00:21:15.222Z,9.58
2019-04-30T00:26:18.069Z,9.49
2019-04-30T00:31:25.669Z,9.43
2019-04-30T00:36:34.192Z,9.38
2019-04-30T00:41:39.923Z,9.35
2019-04-30T00:46:45.480Z,9.33
2019-04-30T00:51:54.703Z,9.32
2019-04-30T00:57:03.712Z,9.32
2019-04-30T01:02:29.172Z,9.30
2019-04-30T01:07:31.932Z,9.29
2019-04-30T01:12:44.212Z,9.27
2019-04-30T01:17:45.295Z,9.26
2019-04-30T01:22:51.466Z,9.26
2019-04-30T01:27:58.579Z,9.25
2019-04-30T01:33:04.018Z,9.22
2019-04-30T01:38:12.722Z,9.20
2019-04-30T01:43:16.516Z,9.19
2019-04-30T01:48:21.846Z,9.19
2019-04-30T01:53:28.571Z,9.17
2019-04-30T01:58:49.473Z,9.15
2019-04-30T02:03:55.241Z,9.06
2019-04-30T02:09:00.642Z,9.02
2019-04-30T02:14:06.347Z,9.04
2019-04-30T02:19:11.672Z,9.08
2019-04-30T02:24:19.054Z,9.10
2019-04-30T02:29:24.130Z,9.14
2019-04-30T02:34:41.148Z,9.29
2019-04-30T02:39:45.981Z,9.35
2019-04-30T02:44:52.956Z,9.38
2019-04-30T02:50:13.676Z,9.40
2019-04-30T02:55:09.418Z,9.41
2019-04-30T03:00:20.627Z,9.41
2019-04-30T03:05:25.229Z,9.34
2019-04-30T03:10:30.652Z,9.35
2019-04-30T03:15:35.950Z,9.29
2019-04-30T03:20:52.685Z,9.21
2019-04-30T03:25:59.698Z,9.24
2019-04-30T03:31:05.427Z,9.21
2019-04-30T03:36:12.278Z,9.26
2019-04-30T03:41:19.924Z,9.25
2019-04-30T03:46:24.871Z,9.24
2019-04-30T03:51:30.460Z,9.24
2019-04-30T03:56:35.892Z,9.25
2019-04-30T04:01:49.772Z,9.25
2019-04-30T04:07:04.118Z,9.30
2019-04-30T04:12:20.512Z,9.36
2019-04-30T04:17:25.020Z,9.55
2019-04-30T04:22:30.873Z,9.64
2019-04-30T04:27:36.340Z,9.64
2019-04-30T04:32:41.840Z,9.80
2019-04-30T04:37:49.555Z,9.84
2019-04-30T04:42:54.191Z,9.99
2019-04-30T04:48:00.217Z,9.93
2019-04-30T04:53:07.920Z,9.84
2019-04-30T04:58:13.118Z,9.84
2019-04-30T05:03:24.921Z,9.88
2019-04-30T05:08:30.523Z,9.85
2019-04-30T05:13:35.951Z,9.88
2019-04-30T05:18:41.410Z,9.93
2019-04-30T05:23:46.983Z,9.93
2019-04-30T05:28:52.985Z,9.94
2019-04-30T05:33:58.767Z,9.97
2019-04-30T05:39:04.538Z,10.03
2019-04-30T05:44:09.963Z,10.04
2019-04-30T05:49:15.451Z,10.23
2019-04-30T05:54:20.818Z,10.43
2019-04-30T05:59:26.331Z,10.52
2019-04-30T06:04:31.775Z,10.57
2019-04-30T06:09:48.510Z,10.62
2019-04-30T06:14:59.091Z,10.59
2019-04-30T06:20:17.460Z,10.53
2019-04-30T06:25:12.124Z,10.53
2019-04-30T06:30:19.853Z,10.51
2019-04-30T06:35:25.727Z,10.60
2019-04-30T06:40:31.459Z,10.71
2019-04-30T06:45:38.799Z,10.79
2019-04-30T06:50:44.921Z,10.91
2019-04-30T06:55:50.573Z,10.98
2019-04-30T07:00:56.033Z,11.11
2019-04-30T07:06:01.451Z,11.04
2019-04-30T07:11:15.026Z,11.01
2019-04-30T07:16:23.686Z,11.04
2019-04-30T07:21:31.547Z,10.99
2019-04-30T07:26:38.806Z,11.16
2019-04-30T07:31:43.451Z,11.32
2019-04-30T07:37:02.484Z,11.35
2019-04-30T07:41:55.973Z,11.29
2019-04-30T07:47:02.135Z,11.38
2019-04-30T07:52:10.837Z,11.25
2019-04-30T07:57:14.628Z,11.28
2019-04-30T08:02:20.753Z,11.19
2019-04-30T08:07:26.455Z,11.32
2019-04-30T08:12:36.424Z,11.45
2019-04-30T08:17:39.050Z,11.51
2019-04-30T08:22:44.610Z,11.36
2019-04-30T08:27:50.016Z,11.55
2019-04-30T08:32:55.266Z,11.67
2019-04-30T08:38:00.610Z,11.77
2019-04-30T08:43:06.366Z,11.63
2019-04-30T08:48:11.852Z,11.59
2019-04-30T08:53:28.987Z,11.59
2019-04-30T08:58:24.580Z,11.78
2019-04-30T09:03:30.094Z,11.73
2019-04-30T09:08:37.087Z,11.90
2019-04-30T09:13:42.559Z,12.09
2019-04-30T09:18:49.456Z,12.06
2019-04-30T09:23:54.874Z,11.86
2019-04-30T09:29:00.316Z,11.70
2019-04-30T09:34:15.168Z,11.72
2019-04-30T09:39:12.905Z,11.83
2019-04-30T09:44:19.491Z,11.89
2019-04-30T09:49:25.076Z,11.94
2019-04-30T09:54:30.979Z,12.17
2019-04-30T09:59:36.552Z,12.30
2019-04-30T10:04:42.457Z,12.21
2019-04-30T10:09:50.681Z,12.43
2019-04-30T10:14:55.778Z,12.39
2019-04-30T10:20:01.161Z,12.22
2019-04-30T10:25:09.258Z,12.21
2019-04-30T10:30:15.115Z,12.54
2019-04-30T10:35:20.619Z,12.72
2019-04-30T10:40:26.257Z,12.85
2019-04-30T10:45:32.158Z,12.93
2019-04-30T10:50:40.713Z,12.93
2019-04-30T10:55:44.718Z,13.06
2019-04-30T11:00:50.056Z,13.00
2019-04-30T11:05:55.393Z,12.80
2019-04-30T11:11:00.946Z,13.02
2019-04-30T11:16:14.771Z,13.76
2019-04-30T11:21:15.103Z,13.86
2019-04-30T11:26:21.197Z,14.49
2019-04-30T11:31:37.182Z,14.52
2019-04-30T11:36:43.047Z,14.33
2019-04-30T11:41:48.802Z,14.36
2019-04-30T11:47:11.328Z,14.61
2019-04-30T11:52:16.879Z,14.61
2019-04-30T11:57:22.390Z,15.12
2019-04-30T12:02:40.846Z,15.10
2019-04-30T12:07:53.172Z,15.50
2019-04-30T12:12:58.788Z,16.04
2019-04-30T12:18:04.590Z,16.60
2019-04-30T12:23:11.893Z,16.71
2019-04-30T12:28:17.150Z,17.24
2019-04-30T12:33:22.662Z,16.68
2019-04-30T12:38:30.025Z,16.50
2019-04-30T12:43:35.611Z,17.15
2019-04-30T12:48:53.906Z,17.57
2019-04-30T12:54:04.271Z,16.96
2019-04-30T12:59:11.714Z,17.04
2019-04-30T13:04:19.382Z,16.89
2019-04-30T13:09:25.460Z,17.22
2019-04-30T13:14:32.055Z,16.18
2019-04-30T13:19:37.991Z,15.99
2019-04-30T13:24:44.645Z,15.66
2019-04-30T13:29:58.862Z,16.08
2019-04-30T13:35:14.515Z,15.67
2019-04-30T13:40:34.590Z,15.09
2019-04-30T13:45:42.107Z,15.37
2019-04-30T13:50:47.606Z,15.20
2019-04-30T13:55:55.250Z,15.00
2019-04-30T14:01:02.205Z,14.80
2019-04-30T14:06:10.023Z,14.98
2019-04-30T14:11:16.151Z,15.23
2019-04-30T14:16:22.651Z,15.20
2019-04-30T14:21:35.043Z,15.52
2019-04-30T14:26:36.234Z,15.29
2019-04-30T14:31:45.294Z,15.29
2019-04-30T14:36:51.211Z,15.22
2019-04-30T14:41:59.581Z,15.00
2019-04-30T14:47:13.928Z,15.71
2019-04-30T14:52:21.142Z,15.92
2019-04-30T14:57:43.314Z,15.77
2019-04-30T15:02:53.818Z,15.42
2019-04-30T15:08:00.945Z,14.73
2019-04-30T15:13:09.742Z,14.55
2019-04-30T15:18:16.730Z,14.43
2019-04-30T15:23:41.577Z,14.52
2019-04-30T15:28:49.189Z,14.25
2019-04-30T15:34:02.865Z,14.06
2019-04-30T15:39:30.638Z,13.89
2019-04-30T15:44:40.117Z,13.90
2019-04-30T15:49:43.583Z,14.50
2019-04-30T15:54:50.590Z,14.55
2019-04-30T15:59:56.626Z,13.95
2019-04-30T16:05:10.933Z,13.65
2019-04-30T16:10:29.455Z,13.77
2019-04-30T16:15:35.774Z,14.14
2019-04-30T16:20:42.376Z,14.14
2019-04-30T16:25:49.723Z,14.10
2019-04-30T16:30:55.794Z,13.73
2019-04-30T16:36:02.202Z,13.51
2019-04-30T16:41:08.942Z,13.47
2019-04-30T16:46:16.111Z,13.37
2019-04-30T16:51:22.783Z,13.52
2019-04-30T16:56:29.197Z,13.43
2019-04-30T17:01:36.214Z,13.45
2019-04-30T17:06:48.808Z,13.21
2019-04-30T17:12:00.602Z,13.16
2019-04-30T17:17:07.966Z,13.15
2019-04-30T17:22:13.603Z,13.06
2019-04-30T17:27:22.077Z,13.00
2019-04-30T17:32:28.587Z,13.04
2019-04-30T17:37:37.404Z,12.87
2019-04-30T17:42:43.934Z,12.85
2019-04-30T17:47:49.759Z,12.80
2019-04-30T17:52:55.390Z,12.69
2019-04-30T17:58:02.682Z,12.69
2019-04-30T18:03:10.805Z,12.66
2019-04-30T18:08:17.014Z,12.50
2019-04-30T18:13:23.275Z,12.33
2019-04-30T18:18:44.795Z,12.26
2019-04-30T18:24:05.151Z,12.36
2019-04-30T18:29:11.082Z,12.36
2019-04-30T18:34:19.364Z,12.29
2019-04-30T18:39:25.555Z,12.15
2019-04-30T18:44:34.339Z,12.15
2019-04-30T18:49:40.836Z,12.12
2019-04-30T18:54:49.622Z,12.01
2019-04-30T18:59:56.213Z,11.97
2019-04-30T19:05:02.136Z,11.87
2019-04-30T19:10:17.096Z,11.86
2019-04-30T19:15:59.151Z,11.84
2019-04-30T19:20:43.182Z,11.67
2019-04-30T19:25:49.682Z,11.49
2019-04-30T19:31:00.382Z,11.30
2019-04-30T19:36:04.011Z,11.33
2019-04-30T19:41:10.864Z,11.39
2019-04-30T19:46:18.797Z,11.42
2019-04-30T19:51:25.733Z,11.41
2019-04-30T19:56:32.837Z,11.30
2019-04-30T20:01:39.498Z,11.30
2019-04-30T20:06:48.707Z,11.25
2019-04-30T20:11:56.860Z,11.22
2019-04-30T20:17:03.973Z,11.27
2019-04-30T20:22:10.616Z,11.21
2019-04-30T20:27:18.893Z,11.19
2019-04-30T20:32:33.884Z,11.12
2019-04-30T20:37:32.226Z,11.15
2019-04-30T20:42:40.152Z,11.17
2019-04-30T20:47:46.054Z,11.18
2019-04-30T20:52:52.808Z,11.15
2019-04-30T20:57:59.541Z,11.17
2019-04-30T21:03:06.063Z,11.13
2019-04-30T21:08:11.861Z,11.19
2019-04-30T21:13:19.366Z,11.18
2019-04-30T21:18:31.886Z,11.13
2019-04-30T21:23:39.822Z,11.05
2019-04-30T21:28:46.182Z,11.04
2019-04-30T21:33:54.635Z,10.93
2019-04-30T21:39:00.462Z,10.73
2019-04-30T21:44:07.322Z,10.63
2019-04-30T21:49:13.274Z,10.62
2019-04-30T21:54:19.202Z,10.69
2019-04-30T21:59:25.223Z,10.71
2019-04-30T22:04:31.194Z,10.77
2019-04-30T22:09:39.525Z,10.74
2019-04-30T22:14:45.353Z,10.76
2019-04-30T22:19:51.787Z,10.75
2019-04-30T22:24:59.661Z,10.80
2019-04-30T22:30:07.782Z,10.80
2019-04-30T22:35:22.263Z,10.89
2019-04-30T22:40:31.310Z,10.87
2019-04-30T22:45:41.986Z,10.78
2019-04-30T22:50:48.330Z,10.72
2019-04-30T22:55:53.953Z,10.78
2019-04-30T23:01:09.487Z,10.91
2019-04-30T23:06:15.766Z,10.94
2019-04-30T23:11:22.026Z,10.85
2019-04-30T23:16:27.870Z,10.89
2019-04-30T23:21:33.816Z,10.88
2019-04-30T23:26:39.174Z,10.85
2019-04-30T23:31:45.693Z,10.84
2019-04-30T23:36:51.166Z,10.88
2019-04-30T23:41:57.294Z,10.90
2019-04-30T23:47:02.825Z,10.92
2019-04-30T23:52:09.486Z,10.90
2019-04-30T23:57:16.223Z,10.86
